4 De Coeur — FW6599 — position and weather

sailwx.info

Track history (hours):
 
Tides and Currents Weather Stations Pressure Air Temp Water Temp Dewpoint Dewpoint Depression Visibility Wind Speed Wind Dir Waves Ship Positions

4 De Coeur

Last reported at 2015-Aug-28 18:13 UTC. Time now 2015-Sep-03 06:55 UTC.
Position N 47°33' W 002°54'.

Length 11 m.

Type: Pleasure craft. MMSI: 227523340.

Date/timePositionNaut miles runAvg speedWind from/ knotsBaromVisibWave heightAir tempDewpointWater temp
2015-Aug-28 18:13N 47°33' W 002°54'1 1.2
2015-Aug-28 17:33N 47°32' W 002°55'5 5.2
2015-Aug-28 16:33N 47°27' W 002°56'4 0.7
2015-Aug-28 11:34N 47°23' W 002°57'4 4.5
2015-Aug-28 10:33N 47°28' W 002°55'5 4.9
2015-Aug-28 09:32N 47°32' W 002°54'0 0.1
2015-Aug-28 08:22N 47°33' W 002°54'  
2015-Aug-22 08:32N 47°33' W 002°54'0 0.0
2015-Aug-22 07:32N 47°33' W 002°54'0 0.0
2015-Aug-21 20:14N 47°33' W 002°54'0 0.0
2015-Aug-21 19:32N 47°33' W 002°54'4 3.7
2015-Aug-21 18:33N 47°29' W 002°55'4 3.6
2015-Aug-21 17:33N 47°25' W 002°55'2 2.3
2015-Aug-21 16:33N 47°23' W 002°57'0 0.0
2015-Aug-21 15:33N 47°23' W 002°57'0 0.0
2015-Aug-21 14:27N 47°23' W 002°57'0 0.0
2015-Aug-21 13:33N 47°23' W 002°57'0 0.0
2015-Aug-21 12:33N 47°23' W 002°57'1 0.7
2015-Aug-21 11:33N 47°24' W 002°56'6 5.6
2015-Aug-21 10:34N 47°29' W 002°55'3 3.2
2015-Aug-21 09:33N 47°32' W 002°54'0 0.1
2015-Aug-21 08:31N 47°33' W 002°54'  
Track history (hours):
 
Tides and Currents Weather Stations Pressure Air Temp Water Temp Dewpoint Dewpoint Depression Visibility Wind Speed Wind Dir Waves Ship Positions

4 De Coeur

Last reported at 2015-Aug-28 18:13 UTC. Time now 2015-Sep-03 06:55 UTC.
Position N 47°33' W 002°54'.

Length 11 m.

Type: Pleasure craft. MMSI: 227523340.

Date/timePositionNaut miles runAvg speedWind from/ knotsBaromVisibWave heightAir tempDewpointWater temp
2015-Aug-28 18:13N 47°33' W 002°54'1 1.2
2015-Aug-28 17:33N 47°32' W 002°55'5 5.2
2015-Aug-28 16:33N 47°27' W 002°56'4 0.7
2015-Aug-28 11:34N 47°23' W 002°57'4 4.5
2015-Aug-28 10:33N 47°28' W 002°55'5 4.9
2015-Aug-28 09:32N 47°32' W 002°54'0 0.1
2015-Aug-28 08:22N 47°33' W 002°54'  
2015-Aug-22 08:32N 47°33' W 002°54'0 0.0
2015-Aug-22 07:32N 47°33' W 002°54'0 0.0
2015-Aug-21 20:14N 47°33' W 002°54'0 0.0
2015-Aug-21 19:32N 47°33' W 002°54'4 3.7
2015-Aug-21 18:33N 47°29' W 002°55'4 3.6
2015-Aug-21 17:33N 47°25' W 002°55'2 2.3
2015-Aug-21 16:33N 47°23' W 002°57'0 0.0
2015-Aug-21 15:33N 47°23' W 002°57'0 0.0
2015-Aug-21 14:27N 47°23' W 002°57'0 0.0
2015-Aug-21 13:33N 47°23' W 002°57'0 0.0
2015-Aug-21 12:33N 47°23' W 002°57'1 0.7
2015-Aug-21 11:33N 47°24' W 002°56'6 5.6
2015-Aug-21 10:34N 47°29' W 002°55'3 3.2
2015-Aug-21 09:33N 47°32' W 002°54'0 0.1
2015-Aug-21 08:31N 47°33' W 002°54'  

Dump ship's entire track history